Aviation Digital Data Service (ADDS)

Output produced by METARs form (1413 UTC 22 September 2014)
found at http://www.aviationweather.gov/adds/metars/
 
KCXY 221356Z 31014KT 10SM SCT044 17/07 A3000 RMK AO2 PK WND 30027/1306 SLP157 T01670067
KCXY 221256Z 30015G26KT 10SM SCT039 16/07 A2997 RMK AO2 PK WND 30029/1219 SLP148 T01610072
KCXY 221156Z 30016G24KT 10SM CLR 16/07 A2993 RMK AO2 SLP136 60000 70020 T01560072 10189 20144 53037
KCXY 221056Z 29007G17KT 10SM FEW032 16/08 A2989 RMK AO2 RAB0959E41 SLP123 P0000 T01560083
KCXY 220956Z AUTO 27007KT 10SM CLR 16/08 A2985 RMK AO2 SLP108 T01560083
KCXY 220856Z AUTO 29009KT 10SM CLR 16/08 A2982 RMK AO2 SLP098 T01610083 53018
KCXY 220756Z AUTO 26007KT 10SM SCT050 16/09 A2980 RMK AO2 SLP092 T01610094
KCXY 220656Z AUTO 28009KT 10SM CLR 17/09 A2978 RMK AO2 SLP083 T01720094
KCXY 220556Z AUTO 29015KT 10SM CLR 19/09 A2977 RMK AO2 RAE44 SLP079 P0000 60001 T01890089 10222 20183 53021
KCXY 220456Z AUTO 26006KT 10SM -RA CLR 18/13 A2975 RMK AO2 SLP072 P0000 T01830128 402940161
KCXY 220356Z AUTO 28007KT 10SM -RA FEW070 19/13 A2972 RMK AO2 SLP064 P0000 T01940133
KCXY 220256Z AUTO 26006KT 10SM -RA CLR 21/16 A2971 RMK AO2 RAB00 SLP058 P0000 60001 T02060161 53017
KCXY 220156Z AUTO 23006KT 10SM BKN110 20/17 A2968 RMK AO2 RAE55 SLP050 P0000 T02000172
KCXY 220056Z AUTO 25005KT 10SM -RA OVC095 22/19 A2966 RMK AO2 LTG DSNT E SLP041 P0001 T02170194
KCXY 220048Z AUTO 25004KT 10SM -RA OVC095 22/19 A2965 RMK AO2 LTG DSNT E AND SE P0001 T02170194
KCXY 220033Z AUTO 25005KT 10SM VCTS -RA OVC100 22/19 A2965 RMK AO2 P0001 T02170194
KCXY 220011Z 21004KT 7SM -RA FEW032 BKN090 OVC110 22/20 A2965 RMK AO2 LTG DSNT SW P0001 T02170200
KCXY 212356Z 29008KT 2SM R08/6000VP6000FT +RA BR FEW033 BKN060 OVC085 22/20 A2965 RMK AO2 RAB07 PRESRR SLP042 P0011 60019 T02170200 10294 20217 53012
KCXY 212256Z 28003KT 8SM CLR 22/20 A2964 RMK AO2 RAE2158 SLP036 P0000 T02170200
KCXY 212156Z 00000KT 7SM -RA FEW033 BKN060 BKN090 23/19 A2963 RMK AO2 RAB06 SLP034 P0008 T02280194
KCXY 212056Z 22006KT 10SM FEW055 SCT070 SCT090 28/17 A2962 RMK AO2 SLP029 T02780167 56031
KCXY 211956Z VRB06KT 10SM FEW110 29/16 A2964 RMK AO2 SLP035 T02890161
KCXY 211856Z 22007KT 180V250 10SM SCT110 28/16 A2967 RMK AO2 SLP046 T02830156
KCXY 211756Z 08007KT 10SM CLR 27/17 A2971 RMK AO2 SLP060 T02720172 10272 20161 58045
KCXY 211656Z 08008KT 10SM CLR 24/17 A2978 RMK AO2 SLP082 T02440167
KCXY 211556Z 09011KT 9SM CLR 22/16 A2981 RMK AO2 SLP094 T02220161
KCXY 211456Z VRB05KT 4SM HZ FEW008 20/16 A2985 RMK AO2 SLP106 T02000161 58015
KCXY 211444Z 11004KT 2 1/2SM HZ FEW006 19/16 A2986 RMK AO2 T01940161
KCXY 211409Z 11005KT 2 1/2SM BR OVC005 18/16 A2988 RMK AO2 T01780156
KCXY 211356Z 10004KT 2SM BR OVC004 17/16 A2988 RMK AO2 CIG 004V009 SLP119 T01720156
KCXY 211336Z 00000KT 3SM BR OVC003 17/16 A2989 RMK AO2 T01720156
KCXY 211256Z 13004KT 2 1/2SM BR OVC003 17/16 A2988 RMK AO2 SLP119 T01670156
KCXY 211242Z 13006KT 3SM BR OVC003 17/15 A2989 RMK AO2 T01670150
KCXY 211227Z 15006KT 2SM R08/3500VP6000FT BR OVC003 17/16 A2989 RMK AO2 T01670156
KCXY 211218Z 14005KT 3SM BR OVC003 16/15 A2989 RMK AO2 T01610150
KCXY 211206Z 15006KT 3SM BR OVC002 16/15 A2989 RMK AO2 T01610150
KCXY 211156Z 13006KT 1 1/2SM R08/6000VP6000FT BR OVC003 16/15 A2989 RMK AO2 SLP122 T01610150 10172 20161 58006
KCXY 211110Z 00000KT 2SM BR OVC003 16/16 A2990 RMK AO2 T01610156
KCXY 211103Z 14004KT 1 1/2SM BR OVC003 16/15 A2990 RMK AO2 T01610150
KCXY 211056Z 15004KT 3SM BR OVC003 16/15 A2990 RMK AO2 SLP126 T01610150
KCXY 211025Z AUTO 13004KT 4SM BR OVC003 16/15 A2991 RMK AO2 T01610150
KCXY 211006Z AUTO 13006KT 3SM BR OVC002 16/15 A2992 RMK AO2 T01610150
KCXY 210956Z AUTO 16007KT 2 1/2SM BR OVC003 16/15 A2992 RMK AO2 SLP131 T01610150
KCXY 210946Z AUTO 16004KT 2 1/2SM BR OVC004 16/15 A2992 RMK AO2 T01610150
KCXY 210856Z AUTO 00000KT 5SM BR OVC004 17/16 A2991 RMK AO2 SLP127 T01670156 56030
KCXY 210808Z AUTO 00000KT 6SM BR OVC004 17/16 A2992 RMK AO2 T01720156
KCXY 210756Z AUTO 11004KT 6SM BR OVC005 17/16 A2992 RMK AO2 SLP132 T01670156
KCXY 210734Z AUTO 00000KT 7SM BKN006 17/16 A2993 RMK AO2 T01670156
KCXY 210725Z AUTO 00000KT 7SM SCT006 16/15 A2994 RMK AO2 T01610150
KCXY 210656Z AUTO 15006KT 8SM CLR 16/15 A2995 RMK AO2 SLP142 T01610150
KCXY 210556Z AUTO 15006KT 10SM CLR 17/15 A3000 RMK AO2 SLP157 T01670150 10217 20161 58022
KCXY 210456Z AUTO 14003KT 10SM CLR 17/14 A3003 RMK AO2 SLP169 T01670144 402720150
KCXY 210356Z AUTO 00000KT 10SM CLR 19/16 A3006 RMK AO2 SLP179 T01890156
KCXY 210256Z AUTO 16004KT 10SM CLR 18/15 A3007 RMK AO2 SLP181 T01830150 53006